Flight Track Log - Related Links

Times and Time Zones

All times are in EDT time to prevent confusion due to time zone crossing. See the ASH3770 flight status page for this flight to view local times or setup timezone preferences in your user account.

Time Position Orientation Groundspeed Altitude Reporting Facility
EDT Latitude Longitude Course Direction KTS MPH feet Rate Location/Type
Mon 10:26:21 PM 42.0167 -87.9167 78° East 170 196 2,600  Level Chicago TRACON
Mon 10:27:27 PM 42.0167 -87.8500 90° East 197 227 4,900 1,837 Climbing Chicago TRACON
Mon 10:27:59 PM 42.0189 -87.8142 85° East 196 226 5,600 2,000 Climbing Chicago Center
Mon 10:29:00 PM 42.0206 -87.7236 89° East 226 260 8,000 2,508 Climbing Chicago Center
Mon 10:30:01 PM 42.0369 -87.6067 79° East 260 299 10,700 2,016 Climbing Chicago Center
Mon 10:31:00 PM 42.0718 -87.2255 78° East  Level FlightAware Approximate
Mon 10:31:02 PM 42.0519 -87.4975 79° East 286 329 12,100  Level Chicago Center
Mon 10:32:04 PM 42.0683 -87.3753 80° East 323 372 13,900 1,854 Climbing Chicago Center
Mon 10:33:05 PM 42.0858 -87.2478 79° East 342 394 15,900 1,869 Climbing Chicago Center
Mon 10:34:06 PM 42.1047 -87.1183 79° East 351 404 17,700 1,574 Climbing Chicago Center
Mon 10:35:07 PM 42.1158 -86.9839 84° East 359 413 19,100 1,475 Climbing Chicago Center
Mon 10:36:08 PM 42.1192 -86.8392 88° East 379 436 20,700 1,610 Climbing Chicago Center
Mon 10:37:10 PM 42.1253 -86.6728 87° East 390 449 22,400 1,415 Climbing Chicago Center
Mon 10:38:11 PM 42.1306 -86.5350 87° East 403 464 23,600 1,180 Climbing Chicago Center
Mon 10:39:12 PM 42.1364 -86.3806 87° East 411 473 24,800 1,180 Climbing Chicago Center
Mon 10:40:13 PM 42.1411 -86.2217 88° East 422 486 26,000 1,180 Climbing Chicago Center
Mon 10:41:14 PM 42.1447 -86.0611 88° East 428 493 27,200 1,131 Climbing Chicago Center
Mon 10:42:15 PM 42.1425 -85.8803 91° East 431 496 28,300 836 Climbing Chicago Center
Mon 10:43:16 PM 42.1408 -85.7153 91° East 439 505 28,900 689 Climbing Chicago Center
Mon 10:44:17 PM 42.1389 -85.5467 91° East 448 516 29,700 829 Climbing Chicago Center
Mon 10:45:19 PM 42.1381 -85.3761 90° East 455 524 30,600 829 Climbing Chicago Center
Mon 10:46:20 PM 42.1361 -85.2069 91° East 455 524 31,400 885 Climbing Chicago Center
Mon 10:47:21 PM 42.1342 -85.0389 91° East 453 521 32,400 984 Climbing Chicago Center
Mon 10:48:22 PM 42.1311 -84.8381 91° East 448 516 33,400 885 Climbing Chicago Center
Mon 10:49:23 PM 42.1272 -84.6714 92° East 448 516 34,200 787 Climbing Chicago Center
Mon 10:50:24 PM 42.1314 -84.5042 88° East 451 519 35,000 425 Climbing Chicago Center
Mon 10:51:16 PM 42.1397 -84.3525 86° East 445 512 35,000  Level Cleveland Center
Mon 10:52:16 PM 42.1558 -84.1769 83° East 455 524 35,000  Level Cleveland Center
Mon 10:53:16 PM 42.1717 -83.9986 83° East 469 540 35,000  Level Cleveland Center
Mon 10:54:16 PM 42.1853 -83.8172 84° East 480 552 35,000  Level Cleveland Center
Mon 10:55:16 PM 42.1986 -83.6383 84° East 480 552 35,000  Level Cleveland Center
Mon 10:56:16 PM 42.2161 -83.4486 83° East 490 564 35,000  Level Cleveland Center
Mon 10:57:16 PM 42.2328 -83.2669 83° East 490 564 35,000 100 Level Cleveland Center
Mon 10:58:16 PM 42.2431 -83.0992 85° East 497 572 35,200 350 Climbing Cleveland Center
Mon 10:59:16 PM 42.2572 -82.9172 84° East 497 572 35,700 500 Climbing Cleveland Center
Mon 11:00:16 PM 42.2692 -82.7353 85° East 497 572 36,200 500 Climbing Cleveland Center
Mon 11:01:16 PM 42.2850 -82.5533 83° East 497 572 36,700 400 Climbing Cleveland Center
Mon 11:02:16 PM 42.2942 -82.3683 86° East 497 572 37,000 150 Climbing Cleveland Center
Mon 11:03:16 PM 42.3072 -82.1836 84° East 497 572 37,000  Level Cleveland Center
Mon 11:04:16 PM 42.3222 -81.9900 84° East 504 580 37,000  Level Cleveland Center
Mon 11:05:16 PM 42.3350 -81.7967 85° East 511 588 37,000  Level Cleveland Center
Mon 11:06:16 PM 42.3494 -81.5833 85° East 511 588 37,000  Level Cleveland Center
Mon 11:07:16 PM 42.3594 -81.3894 86° East 518 596 37,000  Level Cleveland Center
Mon 11:08:16 PM 42.3711 -81.1903 85° East 518 596 37,000  Level Cleveland Center
Mon 11:09:16 PM 42.3822 -80.9936 86° East 523 602 37,000  Level Cleveland Center
Mon 11:10:16 PM 42.3953 -80.7969 85° East 523 602 37,000  Level Cleveland Center
Mon 11:11:16 PM 42.4061 -80.5944 86° East 528 608 37,000  Level Cleveland Center
Mon 11:12:16 PM 42.4164 -80.3947 86° East 528 608 37,000  Level Cleveland Center
Mon 11:13:16 PM 42.4264 -80.2175 86° East 533 613 37,000  Level Cleveland Center
Mon 11:14:16 PM 42.4358 -80.0150 86° East 540 621 37,000  Level Cleveland Center
Mon 11:15:16 PM 42.4431 -79.7983 87° East 530 610 37,000  Level Cleveland Center
Mon 11:16:16 PM 42.4539 -79.5983 86° East 530 610 37,000  Level Cleveland Center
Mon 11:17:16 PM 42.4647 -79.4011 86° East 530 610 37,000  Level Cleveland Center
Mon 11:18:16 PM 42.4728 -79.2039 87° East 530 610 37,000  Level Cleveland Center
Mon 11:19:16 PM 42.4806 -79.0039 87° East 530 610 37,000  Level Cleveland Center
Mon 11:20:16 PM 42.4881 -78.8036 87° East 535 616 37,000  Level Cleveland Center
Mon 11:21:16 PM 42.4953 -78.6064 87° East 535 616 37,000  Level Cleveland Center
Mon 11:22:16 PM 42.5022 -78.4119 87° East 530 610 37,000  Level Cleveland Center
Mon 11:23:16 PM 42.5067 -78.2117 88° East 530 610 37,000  Level Cleveland Center
Mon 11:24:16 PM 42.5131 -78.0142 87° East 530 610 37,000  Level Cleveland Center
Mon 11:25:16 PM 42.5169 -77.8253 88° East 516 594 37,000 -400 Level Cleveland Center
Mon 11:26:16 PM 42.5264 -77.6192 86° East 523 602 36,200 -577 Descending Cleveland Center
Mon 11:28:44 PM 42.5372 -77.1269 88° East 527 606 35,000 -346 Descending Boston Center
Mon 11:29:44 PM 42.5408 -76.9325 88° East 527 606 35,000  Level Boston Center
Mon 11:30:44 PM 42.5464 -76.7356 88° East 522 601 35,000  Level Boston Center
Mon 11:31:44 PM 42.5494 -76.5414 89° East 517 595 35,000  Level Boston Center
Mon 11:32:44 PM 42.5458 -76.3436 91° East 517 595 35,000  Level Boston Center
Mon 11:33:44 PM 42.5356 -76.1542 94° East 517 595 35,000  Level Boston Center
Mon 11:34:44 PM 42.5189 -75.9617 97° East 517 595 35,000  Level Boston Center
Mon 11:35:44 PM 42.5058 -75.7664 95° East 517 595 35,000 -350 Level Boston Center
Mon 11:36:44 PM 42.4908 -75.5683 96° East 525 604 34,300 -850 Descending Boston Center
Mon 11:37:44 PM 42.4750 -75.3706 96° East 525 604 33,300 -1,100 Descending Boston Center
Mon 11:38:44 PM 42.4611 -75.1786 96° East 525 604 32,100 -1,250 Descending Boston Center
Mon 11:39:44 PM 42.4442 -75.0089 98° East 513 590 30,800 -1,400 Descending Boston Center
Mon 11:40:44 PM 42.4317 -74.8256 95° East 503 579 29,300 -1,500 Descending Boston Center
Mon 11:41:44 PM 42.4164 -74.6450 96° East 491 565 27,800 -1,500 Descending Boston Center
Mon 11:42:44 PM 42.3989 -74.4672 98° East 485 558 26,300 -1,500 Descending Boston Center
Mon 11:43:44 PM 42.3875 -74.2897 95° East 479 551 24,800 -1,750 Descending Boston Center
Mon 11:44:44 PM 42.3714 -74.1150 97° East 474 545 22,800 -2,250 Descending Boston Center
Mon 11:45:44 PM 42.3550 -73.9431 97° East 469 540 20,300 -2,450 Descending Boston Center
Mon 11:46:44 PM 42.3383 -73.7686 97° East 462 532 17,900 -2,350 Descending Boston Center
Mon 11:47:44 PM 42.3256 -73.6083 96° East 445 512 15,600 -2,491 Descending Boston Center
Mon 11:48:30 PM 42.3103 -73.4733 99° East 424 488 13,500 -2,250 Descending Boston Center
Mon 11:49:36 PM 42.2950 -73.3103 97° East 412 474 11,400 -1,263 Descending Boston Center
Mon 11:50:43 PM 42.2814 -73.1528 97° East 356 410 10,700 -1,082 Descending Boston Center
Mon 11:51:38 PM 42.2758 -73.0433 94° East 324 373 9,200 -1,537 Descending Boston Center
Mon 11:52:44 PM 42.2722 -72.9256 92° East 313 360 7,600 -1,381 Descending Boston Center
Mon 11:53:44 PM 42.2664 -72.8383 95° East 308 354 6,300 -1,300 Descending Boston Center
Mon 11:54:44 PM 42.2292 -72.7289 115° Southeast 269 310 5,000 -1,150 Descending Boston Center
Mon 11:55:44 PM 42.1917 -72.6531 124° Southeast 247 284 4,000 -1,000 Descending Boston Center
Mon 11:56:44 PM 42.1481 -72.5772 128° Southeast 233 268 3,000 -600 Descending Boston Center
Mon 11:57:44 PM 42.1128 -72.5297 135° Southeast 213 245 2,800 -231 Descending Boston Center
Mon 11:58:54 PM 42.0481 -72.5408 187° South 204 235 2,500 -366 Descending Boston Center
Mon 11:59:55 PM 42.0147 -72.5881 226° Southwest 180 207 2,000 -590 Descending Boston Center
Tue 12:00:56 AM 41.9897 -72.6244 227° Southwest 156 180 1,300 -645 Descending Boston Center
Tue 12:01:56 AM 41.9667 -72.6522 222° Southwest 140 161 700 -550 Descending Boston Center
Tue 12:02:56 AM 41.9375 -72.6911 225° Southwest 140 161 200 -500 Descending Boston Center
Tue 12:04:00 AM 41.9333 -72.6833 135° Southeast  Level FlightAware Approximate
Tue 12:11:00 AM 41.9392 -72.6834 135° Southeast  Level Estimated
Tue 12:12:00 AM 41.9333 -72.6833 135° Southeast  Level FlightAware Approximate
Tue 12:13:00 AM 41.9392 -72.6834 135° Southeast  Level Estimated
Tue 12:14:00 AM 41.9333 -72.6833 135° Southeast  Level FlightAware Approximate

Login

Don't have an account? Register now (free) for customized features, flight alerts, and more!